createdAt,value
2022-08-11T00:02:02.135Z,99117.13
2022-08-11T00:04:37.049Z,99125.09
2022-08-11T00:07:06.810Z,99124.13
2022-08-11T00:09:40.180Z,99131.50
2022-08-11T00:12:16.733Z,99124.53
2022-08-11T00:14:45.330Z,99116.34
2022-08-11T00:17:15.752Z,99118.66
2022-08-11T00:20:12.401Z,99108.28
2022-08-11T00:22:35.528Z,99108.16
2022-08-11T00:25:21.659Z,99110.47
2022-08-11T00:27:49.185Z,99106.38
2022-08-11T00:30:17.026Z,99109.16
2022-08-11T00:32:55.129Z,99113.00
2022-08-11T00:35:52.569Z,99102.06
2022-08-11T00:38:24.817Z,99111.84
2022-08-11T00:41:28.979Z,99110.66
2022-08-11T00:44:04.494Z,99114.63
2022-08-11T00:47:10.872Z,99114.00
2022-08-11T00:49:57.878Z,99118.00
2022-08-11T00:52:44.268Z,99117.00
2022-08-11T00:56:02.928Z,99108.56
2022-08-11T00:59:06.055Z,99119.84
2022-08-11T01:02:12.724Z,99118.22
2022-08-11T01:05:25.824Z,99116.34
2022-08-11T01:08:15.957Z,99118.03
2022-08-11T01:11:17.239Z,99116.19
2022-08-11T01:14:08.292Z,99115.22
2022-08-11T01:17:04.179Z,99119.69
2022-08-11T01:20:47.185Z,99116.06
2022-08-11T01:23:19.779Z,99116.91
2022-08-11T01:26:04.695Z,99115.84
2022-08-11T01:28:59.074Z,99123.19
2022-08-11T01:31:40.808Z,99114.25
2022-08-11T01:35:01.303Z,99120.63
2022-08-11T01:38:20.638Z,99121.81
2022-08-11T01:41:15.105Z,99121.16
2022-08-11T01:44:39.030Z,99123.19
2022-08-11T01:47:53.405Z,99126.50
2022-08-11T01:51:03.338Z,99118.66
2022-08-11T01:54:09.734Z,99119.34
2022-08-11T01:57:13.261Z,99121.53
2022-08-11T01:59:50.013Z,99122.81
2022-08-11T02:02:44.140Z,99116.66
2022-08-11T02:05:52.102Z,99124.53
2022-08-11T02:08:55.635Z,99121.75
2022-08-11T02:11:37.473Z,99120.50
2022-08-11T02:14:22.306Z,99122.19
2022-08-11T02:17:35.866Z,99118.59
2022-08-11T02:20:44.119Z,99122.09
2022-08-11T02:24:05.548Z,99129.22
2022-08-11T02:26:40.147Z,99129.31
2022-08-11T02:29:29.625Z,99128.03
2022-08-11T02:32:30.666Z,99131.03
2022-08-11T02:35:16.181Z,99127.78
2022-08-11T02:37:55.235Z,99127.94
2022-08-11T02:40:36.145Z,99127.31
2022-08-11T02:43:17.387Z,99135.38
2022-08-11T02:46:27.354Z,99131.88
2022-08-11T02:49:31.012Z,99133.59
2022-08-11T02:52:26.395Z,99134.34
2022-08-11T02:55:55.592Z,99139.63
2022-08-11T02:58:30.660Z,99134.81
2022-08-11T03:01:23.330Z,99135.06
2022-08-11T03:04:10.982Z,99135.28
2022-08-11T03:07:01.032Z,99128.91
2022-08-11T03:09:48.327Z,99131.28
2022-08-11T03:13:08.147Z,99133.22
2022-08-11T03:16:36.294Z,99127.44
2022-08-11T03:19:26.167Z,99128.34
2022-08-11T03:22:37.380Z,99124.09
2022-08-11T03:25:21.978Z,99121.50
2022-08-11T03:28:06.142Z,99130.03
2022-08-11T03:31:05.655Z,99124.16
2022-08-11T03:34:06.248Z,99112.81
2022-08-11T03:37:34.427Z,99114.00
2022-08-11T03:40:43.238Z,99117.75
2022-08-11T03:44:17.348Z,99119.59
2022-08-11T03:47:18.811Z,99128.09
2022-08-11T03:50:00.753Z,99121.97
2022-08-11T03:53:28.222Z,99121.63
2022-08-11T03:56:26.474Z,99128.44
2022-08-11T03:59:17.868Z,99124.28
2022-08-11T04:02:24.129Z,99128.72
2022-08-11T04:06:00.010Z,99134.66
2022-08-11T04:09:13.319Z,99133.84
2022-08-11T04:12:36.759Z,99134.69
2022-08-11T04:15:36.956Z,99128.94
2022-08-11T04:18:29.055Z,99126.09
2022-08-11T04:21:24.756Z,99129.06
2022-08-11T04:24:41.059Z,99137.41
2022-08-11T04:27:38.989Z,99131.69
2022-08-11T04:30:13.103Z,99137.22
2022-08-11T04:33:09.376Z,99132.53
2022-08-11T04:36:09.627Z,99138.47
2022-08-11T04:39:19.997Z,99134.03
2022-08-11T04:42:45.380Z,99129.69
2022-08-11T04:45:51.856Z,99139.66
2022-08-11T04:48:54.908Z,99136.78
2022-08-11T04:52:07.105Z,99134.13
2022-08-11T04:55:26.670Z,99137.63
2022-08-11T04:58:20.610Z,99130.22
2022-08-11T05:01:37.505Z,99135.94
2022-08-11T05:04:35.059Z,99135.19
2022-08-11T05:07:58.664Z,99141.44
2022-08-11T05:10:59.162Z,99138.59
2022-08-11T05:14:07.893Z,99143.75
2022-08-11T05:17:08.878Z,99147.25
2022-08-11T05:19:56.176Z,99148.22
2022-08-11T05:22:47.970Z,99142.72
2022-08-11T05:26:43.242Z,99147.69
2022-08-11T05:29:20.387Z,99151.41
2022-08-11T05:32:20.530Z,99159.34
2022-08-11T05:34:53.886Z,99154.69
2022-08-11T05:37:29.715Z,99153.50
2022-08-11T05:40:30.487Z,99154.88
2022-08-11T05:43:21.002Z,99164.06
2022-08-11T05:46:19.003Z,99167.75
2022-08-11T05:49:06.326Z,99162.75
2022-08-11T05:52:04.871Z,99158.50
2022-08-11T05:54:54.514Z,99159.28
2022-08-11T05:57:49.904Z,99157.78
2022-08-11T06:00:14.846Z,99161.56
2022-08-11T06:02:55.203Z,99163.41
2022-08-11T06:05:22.724Z,99163.97
2022-08-11T06:07:57.050Z,99169.00
2022-08-11T06:10:35.785Z,99165.31
2022-08-11T06:13:04.911Z,99159.81
2022-08-11T06:15:44.483Z,99161.50
2022-08-11T06:18:13.847Z,99158.28
2022-08-11T06:20:56.380Z,99158.28
2022-08-11T06:23:30.713Z,99154.66
2022-08-11T06:26:00.176Z,99153.84
2022-08-11T06:28:37.138Z,99154.94
2022-08-11T06:31:17.007Z,99155.19
2022-08-11T06:34:46.466Z,99152.50
2022-08-11T06:37:34.493Z,99151.28
2022-08-11T06:41:06.542Z,99150.53
2022-08-11T06:44:05.651Z,99158.03
2022-08-11T06:46:39.251Z,99148.41
2022-08-11T06:49:27.547Z,99149.31
2022-08-11T06:52:04.482Z,99145.72
2022-08-11T06:54:36.984Z,99139.69
2022-08-11T06:57:29.778Z,99135.34
2022-08-11T07:00:19.008Z,99137.69
2022-08-11T07:03:11.469Z,99136.69
2022-08-11T07:05:46.404Z,99136.47
2022-08-11T07:08:56.495Z,99124.75
2022-08-11T07:12:21.137Z,99131.50
2022-08-11T07:15:11.341Z,99130.13
2022-08-11T07:17:49.676Z,99127.78
2022-08-11T07:20:36.504Z,99134.91
2022-08-11T07:23:28.042Z,99123.81
2022-08-11T07:26:18.964Z,99127.88
2022-08-11T07:28:56.147Z,99123.06
2022-08-11T07:31:29.167Z,99126.53
2022-08-11T07:34:25.451Z,99131.41
2022-08-11T07:36:57.638Z,99122.38
2022-08-11T07:39:33.191Z,99132.56
2022-08-11T07:42:06.638Z,99121.66
2022-08-11T07:44:55.587Z,99125.81
2022-08-11T07:47:42.064Z,99128.03
2022-08-11T07:50:29.444Z,99118.63
2022-08-11T07:53:03.228Z,99119.09
2022-08-11T07:55:51.483Z,99116.72
2022-08-11T07:58:45.720Z,99117.09
2022-08-11T08:01:46.220Z,99112.88
2022-08-11T08:04:35.999Z,99109.69
2022-08-11T08:07:24.789Z,99121.13
2022-08-11T08:10:14.173Z,99122.53
2022-08-11T08:13:01.716Z,99119.78
2022-08-11T08:15:48.607Z,99125.00
2022-08-11T08:18:27.033Z,99116.19
2022-08-11T08:21:11.713Z,99117.44
2022-08-11T08:23:47.513Z,99117.50
2022-08-11T08:26:39.331Z,99115.88
2022-08-11T08:29:26.058Z,99114.06
2022-08-11T08:31:54.101Z,99116.53
2022-08-11T08:34:21.693Z,99117.09
2022-08-11T08:36:51.377Z,99115.97
2022-08-11T08:39:22.761Z,99117.50
2022-08-11T08:41:54.258Z,99124.06
2022-08-11T08:44:41.462Z,99122.78
2022-08-11T08:47:15.099Z,99125.63
2022-08-11T08:50:10.494Z,99120.13
2022-08-11T08:52:52.851Z,99121.81
2022-08-11T08:55:20.782Z,99126.16
2022-08-11T08:57:52.518Z,99108.53
2022-08-11T09:00:23.398Z,99106.69
2022-08-11T09:02:52.231Z,99108.38
2022-08-11T09:05:21.221Z,99108.50
2022-08-11T09:07:54.318Z,99104.97
2022-08-11T09:10:21.467Z,99108.28
2022-08-11T09:12:50.412Z,99111.25
2022-08-11T09:15:19.384Z,99119.31
2022-08-11T09:17:51.190Z,99118.34
2022-08-11T09:20:21.569Z,99116.44
2022-08-11T09:26:19.117Z,99106.44
2022-08-11T09:28:49.621Z,99119.84
2022-08-11T09:31:17.244Z,99107.84
2022-08-11T09:33:45.742Z,99101.72
2022-08-11T09:36:32.763Z,99102.81
2022-08-11T09:39:21.970Z,99094.31
2022-08-11T09:42:00.282Z,99083.25
2022-08-11T09:44:48.733Z,99095.06
2022-08-11T09:47:28.706Z,99089.25
2022-08-11T09:50:01.618Z,99094.59
2022-08-11T09:52:37.631Z,99080.03
2022-08-11T09:55:10.810Z,99072.22
2022-08-11T09:58:05.669Z,99081.50
2022-08-11T10:00:40.107Z,99082.91
2022-08-11T10:03:23.266Z,99085.59
2022-08-11T10:06:33.358Z,99078.72
2022-08-11T10:09:06.167Z,99071.09
2022-08-11T10:11:37.298Z,99082.91
2022-08-11T10:14:33.295Z,99081.88
2022-08-11T10:17:07.368Z,99077.88
2022-08-11T10:19:37.794Z,99078.38
2022-08-11T10:22:27.569Z,99075.94
2022-08-11T10:25:19.545Z,99071.19
2022-08-11T10:28:17.851Z,99057.97
2022-08-11T10:31:06.801Z,99065.75
2022-08-11T10:34:02.287Z,99078.75
2022-08-11T10:36:42.399Z,99060.56
2022-08-11T10:39:17.029Z,99069.28
2022-08-11T10:42:08.453Z,99069.03
2022-08-11T10:44:45.967Z,99057.28
2022-08-11T10:47:33.899Z,99056.81
2022-08-11T10:50:27.730Z,99055.81
2022-08-11T10:53:17.229Z,99051.94
2022-08-11T10:56:05.668Z,99042.53
2022-08-11T10:58:51.472Z,99037.84
2022-08-11T11:01:22.602Z,99036.44
2022-08-11T11:03:54.660Z,99032.69
2022-08-11T11:06:30.283Z,99025.63
2022-08-11T11:09:18.508Z,99031.66
2022-08-11T11:12:13.540Z,99024.63
2022-08-11T11:15:02.288Z,99025.50
2022-08-11T11:17:56.058Z,99015.56
2022-08-11T11:20:56.535Z,99009.94
2022-08-11T11:23:49.587Z,99012.50
2022-08-11T11:26:40.484Z,98998.84
2022-08-11T11:29:35.104Z,98994.09
2022-08-11T11:32:37.698Z,98995.59
2022-08-11T11:35:20.755Z,98995.66
2022-08-11T11:37:56.182Z,98993.63
2022-08-11T11:40:32.733Z,98981.78
2022-08-11T11:43:01.425Z,98981.81
2022-08-11T11:45:29.444Z,98983.47
2022-08-11T11:47:59.746Z,98975.00
2022-08-11T11:50:35.183Z,98977.09
2022-08-11T11:53:09.689Z,98985.25
2022-08-11T11:55:37.608Z,98990.66
2022-08-11T11:58:24.853Z,98988.16
2022-08-11T12:01:12.243Z,98984.03
2022-08-11T12:03:40.883Z,98980.06
2022-08-11T12:06:09.774Z,98988.13
2022-08-11T12:08:38.220Z,98972.97
2022-08-11T12:11:28.798Z,98960.88
2022-08-11T12:14:00.413Z,98970.69
2022-08-11T12:16:33.834Z,98954.88
2022-08-11T12:19:07.715Z,98958.22
2022-08-11T12:21:37.119Z,98958.84
2022-08-11T12:24:29.488Z,98945.94
2022-08-11T12:27:17.814Z,98939.69
2022-08-11T12:29:54.862Z,98939.72
2022-08-11T12:32:34.928Z,98944.97
2022-08-11T12:35:02.166Z,98948.53
2022-08-11T12:37:37.754Z,98935.59
2022-08-11T12:40:43.732Z,98949.13
2022-08-11T12:43:40.780Z,98941.16
2022-08-11T12:46:19.503Z,98923.53
2022-08-11T12:49:11.102Z,98916.44
2022-08-11T12:52:11.397Z,98912.91
2022-08-11T12:54:49.625Z,98917.47
2022-08-11T12:57:46.415Z,98908.06
2022-08-11T13:00:33.025Z,98908.13
2022-08-11T13:03:20.779Z,98898.53
2022-08-11T13:05:52.135Z,98908.91
2022-08-11T13:08:23.177Z,98901.81
2022-08-11T13:11:10.399Z,98905.19
2022-08-11T13:13:54.168Z,98899.31
2022-08-11T13:16:32.470Z,98895.16
2022-08-11T13:19:01.058Z,98889.56
2022-08-11T13:21:29.664Z,98886.84
2022-08-11T13:24:00.319Z,98886.81
2022-08-11T13:26:43.460Z,98881.00
2022-08-11T13:29:18.498Z,98882.22
2022-08-11T13:31:46.924Z,98876.81
2022-08-11T13:34:17.506Z,98870.97
2022-08-11T13:36:45.771Z,98873.06
2022-08-11T13:39:13.842Z,98871.22
2022-08-11T13:41:43.895Z,98866.38
2022-08-11T13:44:17.469Z,98858.91
2022-08-11T13:46:47.714Z,98868.44
2022-08-11T13:49:21.408Z,98869.69
2022-08-11T13:51:48.523Z,98864.28
2022-08-11T13:54:23.727Z,98853.84
2022-08-11T13:56:56.071Z,98857.19
2022-08-11T13:59:30.089Z,98860.53
2022-08-11T14:02:23.024Z,98852.63
2022-08-11T14:05:03.016Z,98848.06
2022-08-11T14:07:40.710Z,98852.22
2022-08-11T14:10:11.950Z,98848.91
2022-08-11T14:13:03.180Z,98842.03
2022-08-11T14:15:34.897Z,98844.28
2022-08-11T14:18:09.038Z,98838.03
2022-08-11T14:21:01.044Z,98843.88
2022-08-11T14:23:34.646Z,98835.59
2022-08-11T14:26:20.662Z,98838.03
2022-08-11T14:28:48.435Z,98833.91
2022-08-11T14:31:16.512Z,98825.56
2022-08-11T14:34:00.482Z,98828.91
2022-08-11T14:36:37.867Z,98830.16
2022-08-11T14:39:12.580Z,98824.28
2022-08-11T14:42:13.251Z,98823.91
2022-08-11T14:45:08.451Z,98815.94
2022-08-11T14:47:39.142Z,98817.63
2022-08-11T14:50:12.703Z,98820.97
2022-08-11T14:53:04.799Z,98821.44
2022-08-11T14:55:57.735Z,98810.38
2022-08-11T14:58:27.926Z,98806.19
2022-08-11T15:00:58.952Z,98812.66
2022-08-11T15:03:33.458Z,98804.13
2022-08-11T15:06:03.392Z,98813.06
2022-08-11T15:08:54.483Z,98808.91
2022-08-11T15:11:48.790Z,98803.72
2022-08-11T15:14:41.449Z,98800.19
2022-08-11T15:17:10.250Z,98792.47
2022-08-11T15:20:00.329Z,98789.34
2022-08-11T15:22:46.120Z,98795.16
2022-08-11T15:25:13.312Z,98793.06
2022-08-11T15:28:01.142Z,98793.88
2022-08-11T15:30:46.869Z,98787.22
2022-08-11T15:33:36.610Z,98780.97
2022-08-11T15:36:27.251Z,98782.47
2022-08-11T15:39:20.831Z,98785.16
2022-08-11T15:42:23.335Z,98782.28
2022-08-11T15:45:18.760Z,98773.53
2022-08-11T15:47:57.601Z,98776.22
2022-08-11T15:50:38.720Z,98780.59
2022-08-11T15:53:17.735Z,98780.59
2022-08-11T15:55:46.870Z,98776.84
2022-08-11T15:58:34.106Z,98771.00
2022-08-11T16:01:22.327Z,98769.53
2022-08-11T16:04:13.736Z,98766.84
2022-08-11T16:07:01.999Z,98771.81
2022-08-11T16:10:00.217Z,98764.72
2022-08-11T16:12:32.669Z,98756.44
2022-08-11T16:15:23.785Z,98744.72
2022-08-11T16:17:55.917Z,98751.38
2022-08-11T16:20:27.839Z,98750.94
2022-08-11T16:23:01.914Z,98747.22
2022-08-11T16:27:05.147Z,98762.22
2022-08-11T16:28:23.109Z,98750.13
2022-08-11T16:30:52.284Z,98757.00
2022-08-11T16:33:48.393Z,98749.53
2022-08-11T16:36:31.671Z,98748.50
2022-08-11T16:39:00.111Z,98747.66
2022-08-11T16:41:52.132Z,98749.31
2022-08-11T16:44:38.947Z,98745.78
2022-08-11T16:48:33.092Z,98744.19
2022-08-11T16:50:13.507Z,98741.25
2022-08-11T16:52:40.027Z,98744.19
2022-08-11T16:55:09.682Z,98741.91
2022-08-11T16:57:59.031Z,98740.03
2022-08-11T17:00:28.418Z,98742.75
2022-08-11T17:03:17.230Z,98746.91
2022-08-11T17:06:11.715Z,98749.41
2022-08-11T17:09:10.483Z,98747.56
2022-08-11T17:12:07.250Z,98746.53
2022-08-11T17:14:45.888Z,98751.31
2022-08-11T17:17:20.746Z,98747.38
2022-08-11T17:20:41.273Z,98749.25
2022-08-11T17:23:03.845Z,98746.53
2022-08-11T17:26:04.032Z,98744.88
2022-08-11T17:28:24.521Z,98747.00
2022-08-11T17:31:21.830Z,98739.91
2022-08-11T17:34:10.215Z,98741.78
2022-08-11T17:36:45.178Z,98741.38
2022-08-11T17:39:14.204Z,98746.16
2022-08-11T17:42:02.507Z,98737.44
2022-08-11T17:44:51.571Z,98735.78
2022-08-11T17:47:38.774Z,98735.34
2022-08-11T17:50:16.909Z,98737.00
2022-08-11T17:53:05.667Z,98740.56
2022-08-11T17:55:54.756Z,98742.00
2022-08-11T17:58:42.046Z,98741.38
2022-08-11T18:01:11.955Z,98731.34
2022-08-11T18:03:56.424Z,98746.78
2022-08-11T18:06:33.786Z,98749.81
2022-08-11T18:09:27.657Z,98752.13
2022-08-11T18:12:14.853Z,98764.78
2022-08-11T18:15:07.239Z,98753.91
2022-08-11T18:17:54.477Z,98763.66
2022-08-11T18:20:42.246Z,98762.56
2022-08-11T18:23:46.233Z,98765.84
2022-08-11T18:26:39.433Z,98767.84
2022-08-11T18:29:27.308Z,98767.91
2022-08-11T18:32:21.988Z,98772.38
2022-08-11T18:35:14.897Z,98774.13
2022-08-11T18:38:07.151Z,98772.38
2022-08-11T18:40:55.519Z,98780.53
2022-08-11T18:43:45.763Z,98772.09
2022-08-11T18:46:37.000Z,98778.16
2022-08-11T18:50:01.006Z,98777.38
2022-08-11T18:52:38.038Z,98781.84
2022-08-11T18:55:32.211Z,98776.22
2022-08-11T18:58:24.029Z,98780.78
2022-08-11T19:01:14.982Z,98784.16
2022-08-11T19:04:11.055Z,98776.88
2022-08-11T19:07:06.045Z,98781.81
2022-08-11T19:09:56.748Z,98787.34
2022-08-11T19:12:44.608Z,98782.31
2022-08-11T19:15:31.895Z,98787.06
2022-08-11T19:18:19.983Z,98795.75
2022-08-11T19:21:06.707Z,98796.50
2022-08-11T19:24:02.442Z,98788.81
2022-08-11T19:26:53.351Z,98806.28
2022-08-11T19:30:07.888Z,98810.34
2022-08-11T19:32:48.510Z,98810.13
2022-08-11T19:35:35.834Z,98810.22
2022-08-11T19:38:23.147Z,98822.66
2022-08-11T19:41:10.939Z,98815.97
2022-08-11T19:43:57.759Z,98825.72
2022-08-11T19:46:44.369Z,98829.38
2022-08-11T19:49:30.667Z,98835.31
2022-08-11T19:52:17.702Z,98838.00
2022-08-11T19:55:04.328Z,98840.50
2022-08-11T19:57:50.615Z,98839.63
2022-08-11T20:00:39.709Z,98845.84
2022-08-11T20:03:32.070Z,98843.78
2022-08-11T20:06:23.578Z,98838.28
2022-08-11T20:09:14.347Z,98834.59
2022-08-11T20:12:04.699Z,98845.94
2022-08-11T20:14:55.546Z,98840.91
2022-08-11T20:17:45.836Z,98847.94
2022-08-11T20:20:34.831Z,98840.56
2022-08-11T20:23:24.319Z,98841.69
2022-08-11T20:26:30.132Z,98842.16
2022-08-11T20:29:19.399Z,98844.56
2022-08-11T20:32:06.374Z,98846.22
2022-08-11T20:34:57.131Z,98850.34
2022-08-11T20:37:50.155Z,98847.09
2022-08-11T20:40:39.703Z,98845.53
2022-08-11T20:44:07.468Z,98842.75
2022-08-11T20:46:41.648Z,98839.13
2022-08-11T20:49:41.317Z,98842.69
2022-08-11T20:52:36.585Z,98848.44
2022-08-11T20:55:26.115Z,98850.06
2022-08-11T20:58:48.088Z,98847.47
2022-08-11T21:01:41.446Z,98850.06
2022-08-11T21:04:27.259Z,98845.34
2022-08-11T21:07:22.844Z,98854.56
2022-08-11T21:10:23.474Z,98843.38
2022-08-11T21:13:24.274Z,98852.81
2022-08-11T21:16:25.556Z,98852.38
2022-08-11T21:20:00.388Z,98850.38
2022-08-11T21:22:42.414Z,98861.09
2022-08-11T21:25:47.683Z,98863.78
2022-08-11T21:28:37.079Z,98856.31
2022-08-11T21:31:25.812Z,98864.44
2022-08-11T21:34:14.526Z,98864.91
2022-08-11T21:37:04.232Z,98860.84
2022-08-11T21:39:50.680Z,98858.63
2022-08-11T21:42:40.035Z,98868.50
2022-08-11T21:45:28.628Z,98861.69
2022-08-11T21:48:15.934Z,98863.69
2022-08-11T21:51:01.076Z,98863.81
2022-08-11T21:53:47.318Z,98858.94
2022-08-11T21:56:33.523Z,98859.94
2022-08-11T21:59:20.333Z,98865.81
2022-08-11T22:02:12.443Z,98869.59
2022-08-11T22:04:59.574Z,98867.38
2022-08-11T22:07:45.957Z,98873.31
2022-08-11T22:10:41.944Z,98867.13
2022-08-11T22:13:31.033Z,98862.91
2022-08-11T22:16:17.917Z,98874.28
2022-08-11T22:19:05.021Z,98868.41
2022-08-11T22:22:01.756Z,98871.06
2022-08-11T22:24:52.746Z,98873.72
2022-08-11T22:27:39.667Z,98872.72
2022-08-11T22:30:28.052Z,98871.72
2022-08-11T22:33:16.742Z,98875.66
2022-08-11T22:36:05.348Z,98871.63
2022-08-11T22:38:53.567Z,98875.53
2022-08-11T22:41:41.853Z,98875.94
2022-08-11T22:44:30.290Z,98887.13
2022-08-11T22:47:19.679Z,98877.00
2022-08-11T22:50:10.508Z,98872.31
2022-08-11T22:52:56.867Z,98872.94
2022-08-11T22:55:44.521Z,98880.28
2022-08-11T22:58:32.747Z,98870.91
2022-08-11T23:01:19.053Z,98878.19
2022-08-11T23:04:08.379Z,98874.22
2022-08-11T23:06:54.206Z,98879.34
2022-08-11T23:09:41.548Z,98870.13
2022-08-11T23:12:27.860Z,98875.94
2022-08-11T23:15:14.354Z,98874.78
2022-08-11T23:17:59.741Z,98887.06
2022-08-11T23:20:54.576Z,98885.66
2022-08-11T23:23:41.281Z,98877.28
2022-08-11T23:26:28.600Z,98879.69
2022-08-11T23:29:17.298Z,98878.50
2022-08-11T23:32:05.733Z,98873.59
2022-08-11T23:35:04.162Z,98867.97
2022-08-11T23:38:02.479Z,98869.38
2022-08-11T23:40:47.654Z,98856.56
2022-08-11T23:43:41.896Z,98871.97
2022-08-11T23:46:27.667Z,98868.06
2022-08-11T23:49:20.068Z,98866.78
2022-08-11T23:52:07.683Z,98868.34
2022-08-11T23:54:54.495Z,98860.38
2022-08-11T23:57:47.695Z,98853.53
